sensor_id;sensor_type;location;lat;lon;timestamp;P1;durP1;ratioP1;P2;durP2;ratioP2
64816;SDS011;53289;45.602;11.904;2022-11-04T00:01:49;163.82;;;53.67;;
64816;SDS011;53289;45.602;11.904;2022-11-04T00:04:16;179.55;;;52.95;;
64816;SDS011;53289;45.602;11.904;2022-11-04T00:06:45;182.77;;;56.00;;
64816;SDS011;53289;45.602;11.904;2022-11-04T00:09:14;195.20;;;57.78;;
64816;SDS011;53289;45.602;11.904;2022-11-04T00:11:44;186.95;;;57.45;;
64816;SDS011;53289;45.602;11.904;2022-11-04T00:14:29;190.18;;;55.53;;
64816;SDS011;53289;45.602;11.904;2022-11-04T00:16:56;215.13;;;58.05;;
64816;SDS011;53289;45.602;11.904;2022-11-04T00:19:41;195.65;;;60.55;;
64816;SDS011;53289;45.602;11.904;2022-11-04T00:22:26;196.52;;;59.63;;
64816;SDS011;53289;45.602;11.904;2022-11-04T00:25:11;221.43;;;58.78;;
64816;SDS011;53289;45.602;11.904;2022-11-04T00:28:10;189.55;;;54.65;;
64816;SDS011;53289;45.602;11.904;2022-11-04T00:30:56;193.88;;;57.22;;
64816;SDS011;53289;45.602;11.904;2022-11-04T00:33:44;218.68;;;58.90;;
64816;SDS011;53289;45.602;11.904;2022-11-04T00:36:11;213.68;;;57.17;;
64816;SDS011;53289;45.602;11.904;2022-11-04T00:38:37;209.00;;;58.92;;
64816;SDS011;53289;45.602;11.904;2022-11-04T00:41:02;217.45;;;62.13;;
64816;SDS011;53289;45.602;11.904;2022-11-04T00:43:49;218.38;;;57.35;;
64816;SDS011;53289;45.602;11.904;2022-11-04T00:46:15;232.43;;;56.20;;
64816;SDS011;53289;45.602;11.904;2022-11-04T00:48:41;208.32;;;56.63;;
64816;SDS011;53289;45.602;11.904;2022-11-04T00:51:07;208.07;;;54.97;;
64816;SDS011;53289;45.602;11.904;2022-11-04T00:53:33;223.90;;;56.05;;
64816;SDS011;53289;45.602;11.904;2022-11-04T00:55:59;220.30;;;54.22;;
64816;SDS011;53289;45.602;11.904;2022-11-04T00:58:26;208.48;;;52.65;;
64816;SDS011;53289;45.602;11.904;2022-11-04T01:00:53;221.70;;;55.40;;
64816;SDS011;53289;45.602;11.904;2022-11-04T01:03:19;200.77;;;53.30;;
64816;SDS011;53289;45.602;11.904;2022-11-04T01:05:45;179.48;;;50.17;;
64816;SDS011;53289;45.602;11.904;2022-11-04T01:08:11;180.30;;;52.20;;
64816;SDS011;53289;45.602;11.904;2022-11-04T01:10:37;179.40;;;50.05;;
64816;SDS011;53289;45.602;11.904;2022-11-04T01:13:09;170.18;;;48.00;;
64816;SDS011;53289;45.602;11.904;2022-11-04T01:15:36;150.63;;;45.47;;
64816;SDS011;53289;45.602;11.904;2022-11-04T01:18:02;137.88;;;44.38;;
64816;SDS011;53289;45.602;11.904;2022-11-04T01:20:28;138.02;;;43.58;;
64816;SDS011;53289;45.602;11.904;2022-11-04T01:22:55;124.90;;;41.10;;
64816;SDS011;53289;45.602;11.904;2022-11-04T01:25:20;124.55;;;40.58;;
64816;SDS011;53289;45.602;11.904;2022-11-04T01:27:46;112.43;;;38.05;;
64816;SDS011;53289;45.602;11.904;2022-11-04T01:30:12;107.45;;;38.90;;
64816;SDS011;53289;45.602;11.904;2022-11-04T01:32:39;111.80;;;38.53;;
64816;SDS011;53289;45.602;11.904;2022-11-04T01:35:05;111.78;;;39.40;;
64816;SDS011;53289;45.602;11.904;2022-11-04T01:37:33;98.80;;;35.80;;
64816;SDS011;53289;45.602;11.904;2022-11-04T01:40:00;93.68;;;35.22;;
64816;SDS011;53289;45.602;11.904;2022-11-04T01:42:26;121.32;;;37.53;;
64816;SDS011;53289;45.602;11.904;2022-11-04T01:44:58;97.05;;;37.30;;
64816;SDS011;53289;45.602;11.904;2022-11-04T01:47:29;83.35;;;31.23;;
64816;SDS011;53289;45.602;11.904;2022-11-04T01:50:07;88.28;;;33.58;;
64816;SDS011;53289;45.602;11.904;2022-11-04T01:55:22;97.10;;;36.55;;
64816;SDS011;53289;45.602;11.904;2022-11-04T01:57:50;87.47;;;32.65;;
64816;SDS011;53289;45.602;11.904;2022-11-04T02:00:20;91.32;;;32.45;;
64816;SDS011;53289;45.602;11.904;2022-11-04T02:05:45;79.97;;;27.58;;
64816;SDS011;53289;45.602;11.904;2022-11-04T02:08:12;70.28;;;26.90;;
64816;SDS011;53289;45.602;11.904;2022-11-04T02:10:40;87.70;;;31.25;;
64816;SDS011;53289;45.602;11.904;2022-11-04T02:13:16;72.13;;;28.88;;
64816;SDS011;53289;45.602;11.904;2022-11-04T02:37:13;91.72;;;27.95;;
64816;SDS011;53289;45.602;11.904;2022-11-04T02:39:47;91.53;;;28.50;;
64816;SDS011;53289;45.602;11.904;2022-11-04T02:48:04;106.10;;;31.20;;
64816;SDS011;53289;45.602;11.904;2022-11-04T02:50:40;98.75;;;28.10;;
64816;SDS011;53289;45.602;11.904;2022-11-04T02:55:48;80.68;;;25.05;;
64816;SDS011;53289;45.602;11.904;2022-11-04T02:58:20;67.40;;;22.13;;
64816;SDS011;53289;45.602;11.904;2022-11-04T03:00:53;62.42;;;22.55;;
64816;SDS011;53289;45.602;11.904;2022-11-04T03:03:27;65.35;;;24.20;;
64816;SDS011;53289;45.602;11.904;2022-11-04T03:05:58;64.85;;;24.67;;
64816;SDS011;53289;45.602;11.904;2022-11-04T03:08:34;70.20;;;22.55;;
64816;SDS011;53289;45.602;11.904;2022-11-04T03:11:11;66.47;;;23.42;;
64816;SDS011;53289;45.602;11.904;2022-11-04T03:16:31;62.13;;;21.90;;
64816;SDS011;53289;45.602;11.904;2022-11-04T03:21:50;66.82;;;21.13;;
64816;SDS011;53289;45.602;11.904;2022-11-04T03:24:20;58.40;;;20.50;;
64816;SDS011;53289;45.602;11.904;2022-11-04T03:26:51;69.38;;;22.75;;
64816;SDS011;53289;45.602;11.904;2022-11-04T03:32:21;70.28;;;23.83;;
64816;SDS011;53289;45.602;11.904;2022-11-04T03:34:50;56.17;;;19.13;;
64816;SDS011;53289;45.602;11.904;2022-11-04T03:37:17;58.83;;;19.13;;
64816;SDS011;53289;45.602;11.904;2022-11-04T03:39:43;65.85;;;20.70;;
64816;SDS011;53289;45.602;11.904;2022-11-04T03:42:10;62.20;;;19.63;;
64816;SDS011;53289;45.602;11.904;2022-11-04T03:44:55;64.05;;;20.10;;
64816;SDS011;53289;45.602;11.904;2022-11-04T03:47:22;70.45;;;24.88;;
64816;SDS011;53289;45.602;11.904;2022-11-04T03:50:08;61.85;;;20.30;;
64816;SDS011;53289;45.602;11.904;2022-11-04T03:52:53;56.30;;;18.50;;
64816;SDS011;53289;45.602;11.904;2022-11-04T03:55:19;46.10;;;16.25;;
64816;SDS011;53289;45.602;11.904;2022-11-04T04:00:18;70.55;;;22.05;;
64816;SDS011;53289;45.602;11.904;2022-11-04T04:05:32;49.08;;;16.75;;
64816;SDS011;53289;45.602;11.904;2022-11-04T04:08:09;49.88;;;16.45;;
64816;SDS011;53289;45.602;11.904;2022-11-04T04:16:02;38.08;;;15.10;;
64816;SDS011;53289;45.602;11.904;2022-11-04T04:18:41;59.88;;;20.48;;
64816;SDS011;53289;45.602;11.904;2022-11-04T04:21:13;57.75;;;19.35;;
64816;SDS011;53289;45.602;11.904;2022-11-04T04:23:43;40.63;;;15.05;;
64816;SDS011;53289;45.602;11.904;2022-11-04T04:26:31;64.30;;;19.17;;
64816;SDS011;53289;45.602;11.904;2022-11-04T04:29:18;38.15;;;14.90;;
64816;SDS011;53289;45.602;11.904;2022-11-04T04:31:46;30.48;;;12.68;;
64816;SDS011;53289;45.602;11.904;2022-11-04T04:34:14;32.05;;;12.43;;
64816;SDS011;53289;45.602;11.904;2022-11-04T04:36:45;32.50;;;12.55;;
64816;SDS011;53289;45.602;11.904;2022-11-04T04:39:16;23.50;;;9.80;;
64816;SDS011;53289;45.602;11.904;2022-11-04T04:42:05;22.02;;;9.35;;
64816;SDS011;53289;45.602;11.904;2022-11-04T04:44:50;19.73;;;9.27;;
64816;SDS011;53289;45.602;11.904;2022-11-04T04:47:43;20.08;;;9.60;;
64816;SDS011;53289;45.602;11.904;2022-11-04T04:50:14;17.17;;;8.60;;
64816;SDS011;53289;45.602;11.904;2022-11-04T04:52:44;18.98;;;8.88;;
64816;SDS011;53289;45.602;11.904;2022-11-04T04:55:12;18.33;;;8.20;;
64816;SDS011;53289;45.602;11.904;2022-11-04T04:57:39;17.60;;;8.27;;
64816;SDS011;53289;45.602;11.904;2022-11-04T05:00:05;20.33;;;8.20;;
64816;SDS011;53289;45.602;11.904;2022-11-04T05:02:34;14.75;;;8.52;;
64816;SDS011;53289;45.602;11.904;2022-11-04T05:05:00;16.27;;;8.27;;
64816;SDS011;53289;45.602;11.904;2022-11-04T05:07:26;11.73;;;7.20;;
64816;SDS011;53289;45.602;11.904;2022-11-04T05:09:52;18.42;;;8.15;;
64816;SDS011;53289;45.602;11.904;2022-11-04T05:12:18;16.45;;;7.78;;
64816;SDS011;53289;45.602;11.904;2022-11-04T05:14:44;14.65;;;8.00;;
64816;SDS011;53289;45.602;11.904;2022-11-04T05:17:10;16.25;;;7.60;;
64816;SDS011;53289;45.602;11.904;2022-11-04T05:19:36;17.08;;;8.02;;
64816;SDS011;53289;45.602;11.904;2022-11-04T05:22:03;16.27;;;7.22;;
64816;SDS011;53289;45.602;11.904;2022-11-04T05:24:29;12.00;;;7.30;;
64816;SDS011;53289;45.602;11.904;2022-11-04T05:26:55;14.60;;;8.57;;
64816;SDS011;53289;45.602;11.904;2022-11-04T05:29:21;15.95;;;7.45;;
64816;SDS011;53289;45.602;11.904;2022-11-04T05:31:47;10.95;;;7.18;;
64816;SDS011;53289;45.602;11.904;2022-11-04T05:34:13;12.55;;;7.90;;
64816;SDS011;53289;45.602;11.904;2022-11-04T05:36:39;17.10;;;8.32;;
64816;SDS011;53289;45.602;11.904;2022-11-04T05:39:05;15.80;;;7.22;;
64816;SDS011;53289;45.602;11.904;2022-11-04T05:41:32;12.57;;;6.65;;
64816;SDS011;53289;45.602;11.904;2022-11-04T05:43:59;13.77;;;6.75;;
64816;SDS011;53289;45.602;11.904;2022-11-04T05:46:27;13.27;;;7.70;;
64816;SDS011;53289;45.602;11.904;2022-11-04T05:48:53;13.65;;;7.20;;
64816;SDS011;53289;45.602;11.904;2022-11-04T05:51:22;12.40;;;6.57;;
64816;SDS011;53289;45.602;11.904;2022-11-04T05:53:49;21.38;;;9.82;;
64816;SDS011;53289;45.602;11.904;2022-11-04T05:56:16;12.90;;;6.68;;
64816;SDS011;53289;45.602;11.904;2022-11-04T05:58:43;12.50;;;6.50;;
64816;SDS011;53289;45.602;11.904;2022-11-04T06:03:49;13.77;;;7.43;;
64816;SDS011;53289;45.602;11.904;2022-11-04T06:06:16;15.57;;;8.75;;
64816;SDS011;53289;45.602;11.904;2022-11-04T06:08:42;12.23;;;6.32;;
64816;SDS011;53289;45.602;11.904;2022-11-04T06:11:08;12.50;;;6.63;;
64816;SDS011;53289;45.602;11.904;2022-11-04T06:13:34;11.43;;;7.18;;
64816;SDS011;53289;45.602;11.904;2022-11-04T06:16:00;14.27;;;7.90;;
64816;SDS011;53289;45.602;11.904;2022-11-04T06:18:25;15.35;;;7.90;;
64816;SDS011;53289;45.602;11.904;2022-11-04T06:21:17;9.90;;;6.07;;
64816;SDS011;53289;45.602;11.904;2022-11-04T06:23:40;11.38;;;6.13;;
64816;SDS011;53289;45.602;11.904;2022-11-04T06:26:07;13.02;;;7.70;;
64816;SDS011;53289;45.602;11.904;2022-11-04T06:28:34;12.02;;;7.13;;
64816;SDS011;53289;45.602;11.904;2022-11-04T06:31:01;14.02;;;7.45;;
64816;SDS011;53289;45.602;11.904;2022-11-04T06:33:29;10.68;;;5.95;;
64816;SDS011;53289;45.602;11.904;2022-11-04T06:35:59;13.07;;;6.55;;
64816;SDS011;53289;45.602;11.904;2022-11-04T06:38:28;11.05;;;6.75;;
64816;SDS011;53289;45.602;11.904;2022-11-04T06:40:56;15.98;;;7.40;;
64816;SDS011;53289;45.602;11.904;2022-11-04T06:43:22;11.27;;;6.38;;
64816;SDS011;53289;45.602;11.904;2022-11-04T06:45:54;10.63;;;6.35;;
64816;SDS011;53289;45.602;11.904;2022-11-04T06:50:48;14.40;;;6.85;;
64816;SDS011;53289;45.602;11.904;2022-11-04T06:53:14;13.63;;;7.40;;
64816;SDS011;53289;45.602;11.904;2022-11-04T06:55:39;13.60;;;7.85;;
64816;SDS011;53289;45.602;11.904;2022-11-04T06:58:06;29.90;;;9.40;;
64816;SDS011;53289;45.602;11.904;2022-11-04T07:00:31;17.85;;;9.30;;
64816;SDS011;53289;45.602;11.904;2022-11-04T07:02:57;46.08;;;10.15;;
64816;SDS011;53289;45.602;11.904;2022-11-04T07:05:23;12.57;;;6.57;;
64816;SDS011;53289;45.602;11.904;2022-11-04T07:07:49;28.23;;;9.00;;
64816;SDS011;53289;45.602;11.904;2022-11-04T07:10:15;19.83;;;11.85;;
64816;SDS011;53289;45.602;11.904;2022-11-04T07:12:42;42.53;;;22.98;;
64816;SDS011;53289;45.602;11.904;2022-11-04T07:15:08;21.58;;;12.57;;
64816;SDS011;53289;45.602;11.904;2022-11-04T07:17:35;23.15;;;12.40;;
64816;SDS011;53289;45.602;11.904;2022-11-04T07:20:01;26.83;;;15.60;;
64816;SDS011;53289;45.602;11.904;2022-11-04T07:22:30;21.02;;;11.45;;
64816;SDS011;53289;45.602;11.904;2022-11-04T07:24:56;18.75;;;11.75;;
64816;SDS011;53289;45.602;11.904;2022-11-04T07:27:21;22.77;;;11.90;;
64816;SDS011;53289;45.602;11.904;2022-11-04T07:29:47;24.55;;;11.82;;
64816;SDS011;53289;45.602;11.904;2022-11-04T07:32:13;28.77;;;13.50;;
64816;SDS011;53289;45.602;11.904;2022-11-04T07:34:39;27.23;;;14.45;;
64816;SDS011;53289;45.602;11.904;2022-11-04T07:37:05;21.88;;;12.63;;
64816;SDS011;53289;45.602;11.904;2022-11-04T07:39:31;19.00;;;10.60;;
64816;SDS011;53289;45.602;11.904;2022-11-04T07:41:57;18.58;;;11.55;;
64816;SDS011;53289;45.602;11.904;2022-11-04T07:44:23;18.67;;;9.38;;
64816;SDS011;53289;45.602;11.904;2022-11-04T07:46:49;15.63;;;9.48;;
64816;SDS011;53289;45.602;11.904;2022-11-04T07:49:15;17.60;;;9.65;;
64816;SDS011;53289;45.602;11.904;2022-11-04T07:51:47;14.70;;;8.27;;
64816;SDS011;53289;45.602;11.904;2022-11-04T07:54:13;17.60;;;9.02;;
64816;SDS011;53289;45.602;11.904;2022-11-04T07:56:39;14.75;;;8.77;;
64816;SDS011;53289;45.602;11.904;2022-11-04T07:59:05;16.60;;;8.68;;
64816;SDS011;53289;45.602;11.904;2022-11-04T08:01:31;15.00;;;8.00;;
64816;SDS011;53289;45.602;11.904;2022-11-04T08:03:57;11.70;;;8.13;;
64816;SDS011;53289;45.602;11.904;2022-11-04T08:06:23;18.45;;;8.60;;
64816;SDS011;53289;45.602;11.904;2022-11-04T08:08:49;16.50;;;8.82;;
64816;SDS011;53289;45.602;11.904;2022-11-04T08:11:19;20.38;;;9.68;;
64816;SDS011;53289;45.602;11.904;2022-11-04T08:13:49;20.20;;;10.93;;
64816;SDS011;53289;45.602;11.904;2022-11-04T08:16:16;17.08;;;10.52;;
64816;SDS011;53289;45.602;11.904;2022-11-04T08:18:44;45.58;;;13.43;;
64816;SDS011;53289;45.602;11.904;2022-11-04T08:21:11;31.85;;;13.10;;
64816;SDS011;53289;45.602;11.904;2022-11-04T08:23:38;24.25;;;12.63;;
64816;SDS011;53289;45.602;11.904;2022-11-04T08:26:08;23.65;;;11.52;;
64816;SDS011;53289;45.602;11.904;2022-11-04T08:28:35;19.38;;;10.90;;
64816;SDS011;53289;45.602;11.904;2022-11-04T08:31:09;22.58;;;10.73;;
64816;SDS011;53289;45.602;11.904;2022-11-04T08:33:37;16.75;;;8.68;;
64816;SDS011;53289;45.602;11.904;2022-11-04T08:36:06;14.38;;;7.03;;
64816;SDS011;53289;45.602;11.904;2022-11-04T08:38:38;8.38;;;4.20;;
64816;SDS011;53289;45.602;11.904;2022-11-04T08:41:04;6.18;;;2.95;;
64816;SDS011;53289;45.602;11.904;2022-11-04T08:43:33;6.20;;;3.00;;
64816;SDS011;53289;45.602;11.904;2022-11-04T08:45:59;7.22;;;2.63;;
64816;SDS011;53289;45.602;11.904;2022-11-04T08:48:27;4.88;;;2.60;;
64816;SDS011;53289;45.602;11.904;2022-11-04T08:50:54;6.10;;;3.00;;
64816;SDS011;53289;45.602;11.904;2022-11-04T08:53:23;5.40;;;2.95;;
64816;SDS011;53289;45.602;11.904;2022-11-04T08:55:49;3.17;;;2.20;;
64816;SDS011;53289;45.602;11.904;2022-11-04T08:58:16;4.90;;;2.72;;
64816;SDS011;53289;45.602;11.904;2022-11-04T09:00:42;6.60;;;3.15;;
64816;SDS011;53289;45.602;11.904;2022-11-04T09:03:09;5.65;;;2.85;;
64816;SDS011;53289;45.602;11.904;2022-11-04T09:05:38;7.53;;;3.28;;
64816;SDS011;53289;45.602;11.904;2022-11-04T09:08:10;11.52;;;5.15;;
64816;SDS011;53289;45.602;11.904;2022-11-04T09:10:39;12.07;;;3.92;;
64816;SDS011;53289;45.602;11.904;2022-11-04T09:13:10;8.30;;;3.50;;
64816;SDS011;53289;45.602;11.904;2022-11-04T09:15:36;7.32;;;3.05;;
64816;SDS011;53289;45.602;11.904;2022-11-04T09:18:03;7.22;;;4.03;;
64816;SDS011;53289;45.602;11.904;2022-11-04T09:20:29;4.78;;;2.90;;
64816;SDS011;53289;45.602;11.904;2022-11-04T09:22:55;3.50;;;2.30;;
64816;SDS011;53289;45.602;11.904;2022-11-04T09:25:22;3.53;;;2.10;;
64816;SDS011;53289;45.602;11.904;2022-11-04T09:27:48;3.30;;;2.30;;
64816;SDS011;53289;45.602;11.904;2022-11-04T09:30:14;2.75;;;1.90;;
64816;SDS011;53289;45.602;11.904;2022-11-04T09:32:40;2.47;;;1.42;;
64816;SDS011;53289;45.602;11.904;2022-11-04T09:35:06;1.30;;;1.10;;
64816;SDS011;53289;45.602;11.904;2022-11-04T09:37:33;1.23;;;1.02;;
64816;SDS011;53289;45.602;11.904;2022-11-04T09:39:59;1.98;;;1.10;;
64816;SDS011;53289;45.602;11.904;2022-11-04T09:45:03;0.73;;;0.70;;
64816;SDS011;53289;45.602;11.904;2022-11-04T09:47:35;1.25;;;0.57;;
64816;SDS011;53289;45.602;11.904;2022-11-04T09:50:06;1.17;;;0.70;;
64816;SDS011;53289;45.602;11.904;2022-11-04T09:52:37;1.60;;;0.77;;
64816;SDS011;53289;45.602;11.904;2022-11-04T09:58:16;1.02;;;0.80;;
64816;SDS011;53289;45.602;11.904;2022-11-04T10:00:43;0.93;;;0.50;;
64816;SDS011;53289;45.602;11.904;2022-11-04T10:06:19;2.35;;;0.70;;
64816;SDS011;53289;45.602;11.904;2022-11-04T10:22:31;0.98;;;0.90;;
64816;SDS011;53289;45.602;11.904;2022-11-04T10:25:15;4.10;;;0.80;;
64816;SDS011;53289;45.602;11.904;2022-11-04T10:27:47;3.58;;;0.50;;
64816;SDS011;53289;45.602;11.904;2022-11-04T10:30:17;0.60;;;0.60;;
64816;SDS011;53289;45.602;11.904;2022-11-04T10:32:51;1.08;;;0.70;;
64816;SDS011;53289;45.602;11.904;2022-11-04T10:35:46;1.27;;;0.70;;
64816;SDS011;53289;45.602;11.904;2022-11-04T10:40:52;0.98;;;0.75;;
64816;SDS011;53289;45.602;11.904;2022-11-04T10:43:31;0.80;;;0.80;;
64816;SDS011;53289;45.602;11.904;2022-11-04T10:51:33;5.03;;;0.73;;
64816;SDS011;53289;45.602;11.904;2022-11-04T10:53:59;15.55;;;1.17;;
64816;SDS011;53289;45.602;11.904;2022-11-04T11:02:00;5.95;;;0.70;;
64816;SDS011;53289;45.602;11.904;2022-11-04T11:04:28;7.78;;;1.05;;
64816;SDS011;53289;45.602;11.904;2022-11-04T11:06:55;1.20;;;0.88;;
64816;SDS011;53289;45.602;11.904;2022-11-04T11:09:25;2.20;;;1.00;;
64816;SDS011;53289;45.602;11.904;2022-11-04T11:12:39;1.00;;;0.82;;
64816;SDS011;53289;45.602;11.904;2022-11-04T11:14:41;1.08;;;0.68;;
64816;SDS011;53289;45.602;11.904;2022-11-04T11:22:47;0.98;;;0.70;;
64816;SDS011;53289;45.602;11.904;2022-11-04T11:27:57;0.98;;;0.82;;
64816;SDS011;53289;45.602;11.904;2022-11-04T11:32:52;1.55;;;0.88;;
64816;SDS011;53289;45.602;11.904;2022-11-04T11:35:22;1.67;;;0.80;;
64816;SDS011;53289;45.602;11.904;2022-11-04T11:37:52;0.77;;;0.77;;
64816;SDS011;53289;45.602;11.904;2022-11-04T11:40:25;1.38;;;0.80;;
64816;SDS011;53289;45.602;11.904;2022-11-04T11:42:56;1.58;;;1.10;;
64816;SDS011;53289;45.602;11.904;2022-11-04T11:45:24;1.00;;;0.70;;
64816;SDS011;53289;45.602;11.904;2022-11-04T11:47:52;1.42;;;1.00;;
64816;SDS011;53289;45.602;11.904;2022-11-04T11:50:22;3.67;;;1.00;;
64816;SDS011;53289;45.602;11.904;2022-11-04T11:53:17;1.50;;;0.80;;
64816;SDS011;53289;45.602;11.904;2022-11-04T11:58:48;2.40;;;0.98;;
64816;SDS011;53289;45.602;11.904;2022-11-04T12:01:41;1.10;;;1.00;;
64816;SDS011;53289;45.602;11.904;2022-11-04T12:04:25;3.10;;;0.90;;
64816;SDS011;53289;45.602;11.904;2022-11-04T12:09:50;2.00;;;0.80;;
64816;SDS011;53289;45.602;11.904;2022-11-04T12:12:33;1.58;;;0.80;;
64816;SDS011;53289;45.602;11.904;2022-11-04T12:15:15;1.33;;;0.60;;
64816;SDS011;53289;45.602;11.904;2022-11-04T12:17:48;0.60;;;0.60;;
64816;SDS011;53289;45.602;11.904;2022-11-04T12:28:39;2.30;;;2.10;;
64816;SDS011;53289;45.602;11.904;2022-11-04T12:31:13;1.10;;;1.00;;
64816;SDS011;53289;45.602;11.904;2022-11-04T12:41:58;3.45;;;0.90;;
64816;SDS011;53289;45.602;11.904;2022-11-04T12:50:00;0.93;;;0.80;;
64816;SDS011;53289;45.602;11.904;2022-11-04T13:00:27;0.57;;;0.50;;
64816;SDS011;53289;45.602;11.904;2022-11-04T13:02:56;1.15;;;0.60;;
64816;SDS011;53289;45.602;11.904;2022-11-04T13:05:32;1.23;;;0.50;;
64816;SDS011;53289;45.602;11.904;2022-11-04T13:13:14;0.75;;;0.60;;
64816;SDS011;53289;45.602;11.904;2022-11-04T13:15:44;2.38;;;0.63;;
64816;SDS011;53289;45.602;11.904;2022-11-04T13:18:17;1.50;;;1.13;;
64816;SDS011;53289;45.602;11.904;2022-11-04T13:20:52;2.15;;;0.93;;
64816;SDS011;53289;45.602;11.904;2022-11-04T13:26:11;2.70;;;0.45;;
64816;SDS011;53289;45.602;11.904;2022-11-04T13:28:40;1.00;;;0.40;;
64816;SDS011;53289;45.602;11.904;2022-11-04T13:36:48;1.00;;;0.70;;
64816;SDS011;53289;45.602;11.904;2022-11-04T13:39:30;0.70;;;0.70;;
64816;SDS011;53289;45.602;11.904;2022-11-04T13:44:50;0.55;;;0.40;;
64816;SDS011;53289;45.602;11.904;2022-11-04T13:47:22;1.75;;;0.52;;
64816;SDS011;53289;45.602;11.904;2022-11-04T13:49:56;1.35;;;0.47;;
64816;SDS011;53289;45.602;11.904;2022-11-04T13:52:26;0.40;;;0.40;;
64816;SDS011;53289;45.602;11.904;2022-11-04T13:54:59;0.77;;;0.55;;
64816;SDS011;53289;45.602;11.904;2022-11-04T13:57:50;1.17;;;0.73;;
64816;SDS011;53289;45.602;11.904;2022-11-04T14:08:23;0.80;;;0.52;;
64816;SDS011;53289;45.602;11.904;2022-11-04T14:15:59;0.63;;;0.53;;
64816;SDS011;53289;45.602;11.904;2022-11-04T14:18:27;1.52;;;0.80;;
64816;SDS011;53289;45.602;11.904;2022-11-04T14:23:40;0.73;;;0.73;;
64816;SDS011;53289;45.602;11.904;2022-11-04T14:26:08;1.20;;;0.90;;
64816;SDS011;53289;45.602;11.904;2022-11-04T14:28:36;2.33;;;0.88;;
64816;SDS011;53289;45.602;11.904;2022-11-04T14:31:10;1.33;;;1.13;;
64816;SDS011;53289;45.602;11.904;2022-11-04T14:33:52;0.50;;;0.50;;
64816;SDS011;53289;45.602;11.904;2022-11-04T14:44:47;0.82;;;0.43;;
64816;SDS011;53289;45.602;11.904;2022-11-04T14:47:38;0.47;;;0.45;;
64816;SDS011;53289;45.602;11.904;2022-11-04T14:52:29;0.95;;;0.55;;
64816;SDS011;53289;45.602;11.904;2022-11-04T14:57:49;0.88;;;0.55;;
64816;SDS011;53289;45.602;11.904;2022-11-04T15:05:48;5.20;;;1.90;;
64816;SDS011;53289;45.602;11.904;2022-11-04T15:08:41;6.67;;;2.47;;
64816;SDS011;53289;45.602;11.904;2022-11-04T15:13:49;3.83;;;2.63;;
64816;SDS011;53289;45.602;11.904;2022-11-04T15:16:21;2.83;;;1.70;;
64816;SDS011;53289;45.602;11.904;2022-11-04T15:18:50;2.13;;;1.40;;
64816;SDS011;53289;45.602;11.904;2022-11-04T15:21:18;4.10;;;1.30;;
64816;SDS011;53289;45.602;11.904;2022-11-04T15:23:45;3.40;;;1.38;;
64816;SDS011;53289;45.602;11.904;2022-11-04T15:28:44;6.60;;;1.90;;
64816;SDS011;53289;45.602;11.904;2022-11-04T15:33:46;12.02;;;8.55;;
64816;SDS011;53289;45.602;11.904;2022-11-04T15:36:22;9.13;;;5.25;;
64816;SDS011;53289;45.602;11.904;2022-11-04T15:38:58;4.90;;;3.38;;
64816;SDS011;53289;45.602;11.904;2022-11-04T15:41:37;4.03;;;2.75;;
64816;SDS011;53289;45.602;11.904;2022-11-04T15:44:25;3.70;;;2.08;;
64816;SDS011;53289;45.602;11.904;2022-11-04T15:47:03;3.42;;;1.73;;
64816;SDS011;53289;45.602;11.904;2022-11-04T15:49:41;2.13;;;1.35;;
64816;SDS011;53289;45.602;11.904;2022-11-04T15:52:29;2.42;;;1.45;;
64816;SDS011;53289;45.602;11.904;2022-11-04T15:54:55;3.38;;;1.42;;
64816;SDS011;53289;45.602;11.904;2022-11-04T16:00:01;4.25;;;0.90;;
64816;SDS011;53289;45.602;11.904;2022-11-04T16:02:34;1.38;;;0.80;;
64816;SDS011;53289;45.602;11.904;2022-11-04T16:05:05;1.30;;;1.00;;
64816;SDS011;53289;45.602;11.904;2022-11-04T16:07:38;3.42;;;1.00;;
64816;SDS011;53289;45.602;11.904;2022-11-04T16:12:55;0.70;;;0.70;;
64816;SDS011;53289;45.602;11.904;2022-11-04T16:15:32;1.40;;;0.82;;
64816;SDS011;53289;45.602;11.904;2022-11-04T16:18:01;1.40;;;1.00;;
64816;SDS011;53289;45.602;11.904;2022-11-04T16:20:29;2.45;;;1.00;;
64816;SDS011;53289;45.602;11.904;2022-11-04T16:22:57;2.33;;;1.20;;
64816;SDS011;53289;45.602;11.904;2022-11-04T16:25:27;1.60;;;1.10;;
64816;SDS011;53289;45.602;11.904;2022-11-04T16:27:56;3.72;;;1.60;;
64816;SDS011;53289;45.602;11.904;2022-11-04T16:30:22;2.22;;;1.40;;
64816;SDS011;53289;45.602;11.904;2022-11-04T16:32:50;2.28;;;1.60;;
64816;SDS011;53289;45.602;11.904;2022-11-04T16:35:21;3.53;;;1.83;;
64816;SDS011;53289;45.602;11.904;2022-11-04T16:37:51;6.30;;;2.90;;
64816;SDS011;53289;45.602;11.904;2022-11-04T16:40:20;4.28;;;1.88;;
64816;SDS011;53289;45.602;11.904;2022-11-04T16:42:48;5.50;;;2.50;;
64816;SDS011;53289;45.602;11.904;2022-11-04T16:47:57;4.30;;;2.60;;
64816;SDS011;53289;45.602;11.904;2022-11-04T16:50:24;4.50;;;2.22;;
64816;SDS011;53289;45.602;11.904;2022-11-04T16:52:50;5.25;;;2.45;;
64816;SDS011;53289;45.602;11.904;2022-11-04T16:55:17;5.97;;;2.30;;
64816;SDS011;53289;45.602;11.904;2022-11-04T16:57:44;7.68;;;2.70;;
64816;SDS011;53289;45.602;11.904;2022-11-04T17:00:17;4.53;;;2.28;;
64816;SDS011;53289;45.602;11.904;2022-11-04T17:02:47;4.43;;;2.42;;
64816;SDS011;53289;45.602;11.904;2022-11-04T17:05:14;6.00;;;2.90;;
64816;SDS011;53289;45.602;11.904;2022-11-04T17:07:41;4.63;;;2.70;;
64816;SDS011;53289;45.602;11.904;2022-11-04T17:10:17;4.97;;;2.78;;
64816;SDS011;53289;45.602;11.904;2022-11-04T17:12:45;4.32;;;2.35;;
64816;SDS011;53289;45.602;11.904;2022-11-04T17:15:12;7.45;;;3.20;;
64816;SDS011;53289;45.602;11.904;2022-11-04T17:17:40;4.35;;;2.80;;
64816;SDS011;53289;45.602;11.904;2022-11-04T17:20:06;5.75;;;3.20;;
64816;SDS011;53289;45.602;11.904;2022-11-04T17:22:35;5.38;;;2.92;;
64816;SDS011;53289;45.602;11.904;2022-11-04T17:25:02;6.05;;;3.25;;
64816;SDS011;53289;45.602;11.904;2022-11-04T17:27:28;7.32;;;3.85;;
64816;SDS011;53289;45.602;11.904;2022-11-04T17:29:55;9.65;;;5.25;;
64816;SDS011;53289;45.602;11.904;2022-11-04T17:32:21;9.02;;;5.25;;
64816;SDS011;53289;45.602;11.904;2022-11-04T17:34:47;13.73;;;7.22;;
64816;SDS011;53289;45.602;11.904;2022-11-04T17:37:13;10.80;;;5.60;;
64816;SDS011;53289;45.602;11.904;2022-11-04T17:39:39;6.95;;;3.75;;
64816;SDS011;53289;45.602;11.904;2022-11-04T17:42:05;6.90;;;3.50;;
64816;SDS011;53289;45.602;11.904;2022-11-04T17:44:49;5.80;;;3.53;;
64816;SDS011;53289;45.602;11.904;2022-11-04T17:47:16;7.13;;;3.83;;
64816;SDS011;53289;45.602;11.904;2022-11-04T17:49:41;6.80;;;4.65;;
64816;SDS011;53289;45.602;11.904;2022-11-04T17:52:07;8.27;;;4.63;;
64816;SDS011;53289;45.602;11.904;2022-11-04T17:54:33;7.07;;;4.20;;
64816;SDS011;53289;45.602;11.904;2022-11-04T17:56:59;7.85;;;3.80;;
64816;SDS011;53289;45.602;11.904;2022-11-04T17:59:25;6.00;;;3.90;;
64816;SDS011;53289;45.602;11.904;2022-11-04T18:01:51;7.93;;;4.05;;
64816;SDS011;53289;45.602;11.904;2022-11-04T18:04:21;4.82;;;3.60;;
64816;SDS011;53289;45.602;11.904;2022-11-04T18:06:47;5.63;;;3.78;;
64816;SDS011;53289;45.602;11.904;2022-11-04T18:09:14;6.65;;;4.10;;